sensor_id;sensor_type;location;lat;lon;timestamp;temperature;humidity
12386;DHT22;6257;57.634;18.310;2023-04-03T00:01:47;-0.10;99.90
12386;DHT22;6257;57.634;18.310;2023-04-03T00:04:14;-0.10;99.90
12386;DHT22;6257;57.634;18.310;2023-04-03T00:06:42;-0.10;99.90
12386;DHT22;6257;57.634;18.310;2023-04-03T00:09:08;-0.20;99.90
12386;DHT22;6257;57.634;18.310;2023-04-03T00:11:36;0.00;99.90
12386;DHT22;6257;57.634;18.310;2023-04-03T00:14:03;-0.20;99.90
12386;DHT22;6257;57.634;18.310;2023-04-03T00:16:30;0.20;99.90
12386;DHT22;6257;57.634;18.310;2023-04-03T00:18:58;-0.20;99.90
12386;DHT22;6257;57.634;18.310;2023-04-03T00:21:25;0.20;99.90
12386;DHT22;6257;57.634;18.310;2023-04-03T00:23:52;-0.20;99.90
12386;DHT22;6257;57.634;18.310;2023-04-03T00:26:19;0.00;99.90
12386;DHT22;6257;57.634;18.310;2023-04-03T00:28:46;-0.20;99.90
12386;DHT22;6257;57.634;18.310;2023-04-03T00:31:14;-0.20;99.90
12386;DHT22;6257;57.634;18.310;2023-04-03T00:33:42;-0.20;99.90
12386;DHT22;6257;57.634;18.310;2023-04-03T00:36:11;-0.30;99.90
12386;DHT22;6257;57.634;18.310;2023-04-03T00:38:39;-0.20;99.90
12386;DHT22;6257;57.634;18.310;2023-04-03T00:41:06;-0.20;99.90
12386;DHT22;6257;57.634;18.310;2023-04-03T00:43:33;-0.10;99.90
12386;DHT22;6257;57.634;18.310;2023-04-03T00:46:00;-0.30;99.90
12386;DHT22;6257;57.634;18.310;2023-04-03T00:48:30;-0.20;99.90
12386;DHT22;6257;57.634;18.310;2023-04-03T00:50:58;-0.10;99.90
12386;DHT22;6257;57.634;18.310;2023-04-03T00:53:30;0.00;99.90
12386;DHT22;6257;57.634;18.310;2023-04-03T00:55:58;-0.10;99.90
12386;DHT22;6257;57.634;18.310;2023-04-03T00:58:28;-0.10;99.90
12386;DHT22;6257;57.634;18.310;2023-04-03T01:00:59;-0.10;99.90
12386;DHT22;6257;57.634;18.310;2023-04-03T01:03:26;0.10;99.90
12386;DHT22;6257;57.634;18.310;2023-04-03T01:05:53;0.00;99.90
12386;DHT22;6257;57.634;18.310;2023-04-03T01:08:20;0.10;99.90
12386;DHT22;6257;57.634;18.310;2023-04-03T01:10:49;0.00;99.90
12386;DHT22;6257;57.634;18.310;2023-04-03T01:13:22;-0.10;99.90
12386;DHT22;6257;57.634;18.310;2023-04-03T01:15:50;0.00;99.90
12386;DHT22;6257;57.634;18.310;2023-04-03T01:18:17;0.00;99.90
12386;DHT22;6257;57.634;18.310;2023-04-03T01:24:16;0.00;99.90
12386;DHT22;6257;57.634;18.310;2023-04-03T01:26:49;0.00;99.90
12386;DHT22;6257;57.634;18.310;2023-04-03T01:29:17;0.10;99.90
12386;DHT22;6257;57.634;18.310;2023-04-03T01:31:54;0.20;99.90
12386;DHT22;6257;57.634;18.310;2023-04-03T01:34:22;0.20;99.90
12386;DHT22;6257;57.634;18.310;2023-04-03T01:36:49;0.00;99.90
12386;DHT22;6257;57.634;18.310;2023-04-03T01:39:17;0.00;99.90
12386;DHT22;6257;57.634;18.310;2023-04-03T01:41:44;0.10;99.90
12386;DHT22;6257;57.634;18.310;2023-04-03T01:44:12;0.00;99.90
12386;DHT22;6257;57.634;18.310;2023-04-03T01:46:39;0.00;99.90
12386;DHT22;6257;57.634;18.310;2023-04-03T01:49:08;0.00;99.90
12386;DHT22;6257;57.634;18.310;2023-04-03T01:51:35;0.00;99.90
12386;DHT22;6257;57.634;18.310;2023-04-03T01:54:03;0.00;99.90
12386;DHT22;6257;57.634;18.310;2023-04-03T01:56:29;0.00;99.90
12386;DHT22;6257;57.634;18.310;2023-04-03T01:58:56;0.20;99.90
12386;DHT22;6257;57.634;18.310;2023-04-03T02:01:23;0.00;99.90
12386;DHT22;6257;57.634;18.310;2023-04-03T02:03:51;0.00;99.90
12386;DHT22;6257;57.634;18.310;2023-04-03T02:06:19;0.00;99.90
12386;DHT22;6257;57.634;18.310;2023-04-03T02:08:46;0.10;99.90
12386;DHT22;6257;57.634;18.310;2023-04-03T02:11:13;0.00;99.90
12386;DHT22;6257;57.634;18.310;2023-04-03T02:13:40;0.00;99.90
12386;DHT22;6257;57.634;18.310;2023-04-03T02:16:08;0.10;99.90
12386;DHT22;6257;57.634;18.310;2023-04-03T02:18:36;0.00;99.90
12386;DHT22;6257;57.634;18.310;2023-04-03T02:21:04;0.00;99.90
12386;DHT22;6257;57.634;18.310;2023-04-03T02:23:32;0.00;99.90
12386;DHT22;6257;57.634;18.310;2023-04-03T02:26:06;0.00;99.90
12386;DHT22;6257;57.634;18.310;2023-04-03T02:28:33;0.00;99.90
12386;DHT22;6257;57.634;18.310;2023-04-03T02:31:01;0.00;99.90
12386;DHT22;6257;57.634;18.310;2023-04-03T02:33:28;0.00;99.90
12386;DHT22;6257;57.634;18.310;2023-04-03T02:35:56;-0.10;99.90
12386;DHT22;6257;57.634;18.310;2023-04-03T02:38:24;0.00;99.90
12386;DHT22;6257;57.634;18.310;2023-04-03T02:40:52;0.00;99.90
12386;DHT22;6257;57.634;18.310;2023-04-03T02:43:19;0.00;99.90
12386;DHT22;6257;57.634;18.310;2023-04-03T02:45:46;0.40;99.90
12386;DHT22;6257;57.634;18.310;2023-04-03T02:48:13;0.00;99.90
12386;DHT22;6257;57.634;18.310;2023-04-03T02:50:42;0.00;99.90
12386;DHT22;6257;57.634;18.310;2023-04-03T02:53:09;0.20;99.90
12386;DHT22;6257;57.634;18.310;2023-04-03T02:55:36;0.10;99.90
12386;DHT22;6257;57.634;18.310;2023-04-03T02:58:04;0.20;99.90
12386;DHT22;6257;57.634;18.310;2023-04-03T03:00:32;0.20;99.90
12386;DHT22;6257;57.634;18.310;2023-04-03T03:02:59;0.10;99.90
12386;DHT22;6257;57.634;18.310;2023-04-03T03:05:27;0.10;99.90
12386;DHT22;6257;57.634;18.310;2023-04-03T03:07:54;0.20;99.90
12386;DHT22;6257;57.634;18.310;2023-04-03T03:10:21;0.20;99.90
12386;DHT22;6257;57.634;18.310;2023-04-03T03:12:49;0.20;99.90
12386;DHT22;6257;57.634;18.310;2023-04-03T03:15:17;0.20;99.90
12386;DHT22;6257;57.634;18.310;2023-04-03T03:17:45;0.30;99.90
12386;DHT22;6257;57.634;18.310;2023-04-03T03:20:13;0.30;99.90
12386;DHT22;6257;57.634;18.310;2023-04-03T03:22:41;0.30;99.90
12386;DHT22;6257;57.634;18.310;2023-04-03T03:25:08;0.30;99.90
12386;DHT22;6257;57.634;18.310;2023-04-03T03:27:35;0.30;99.90
12386;DHT22;6257;57.634;18.310;2023-04-03T03:30:04;0.30;99.90
12386;DHT22;6257;57.634;18.310;2023-04-03T03:32:32;0.30;99.90
12386;DHT22;6257;57.634;18.310;2023-04-03T03:35:00;0.30;99.90
12386;DHT22;6257;57.634;18.310;2023-04-03T03:37:27;0.40;99.90
12386;DHT22;6257;57.634;18.310;2023-04-03T03:39:54;0.30;99.90
12386;DHT22;6257;57.634;18.310;2023-04-03T03:42:21;0.30;99.90
12386;DHT22;6257;57.634;18.310;2023-04-03T03:44:48;0.40;99.90
12386;DHT22;6257;57.634;18.310;2023-04-03T03:47:15;0.30;99.90
12386;DHT22;6257;57.634;18.310;2023-04-03T03:49:43;0.30;99.90
12386;DHT22;6257;57.634;18.310;2023-04-03T03:52:10;0.30;99.90
12386;DHT22;6257;57.634;18.310;2023-04-03T03:54:38;0.40;99.90
12386;DHT22;6257;57.634;18.310;2023-04-03T03:57:05;0.30;99.90
12386;DHT22;6257;57.634;18.310;2023-04-03T03:59:32;0.30;99.90
12386;DHT22;6257;57.634;18.310;2023-04-03T04:01:59;0.40;99.90
12386;DHT22;6257;57.634;18.310;2023-04-03T04:04:26;0.20;99.90
12386;DHT22;6257;57.634;18.310;2023-04-03T04:06:54;0.20;99.90
12386;DHT22;6257;57.634;18.310;2023-04-03T04:09:21;0.30;99.90
12386;DHT22;6257;57.634;18.310;2023-04-03T04:11:49;0.40;99.90
12386;DHT22;6257;57.634;18.310;2023-04-03T04:14:16;0.10;99.90
12386;DHT22;6257;57.634;18.310;2023-04-03T04:16:43;0.10;99.90
12386;DHT22;6257;57.634;18.310;2023-04-03T04:19:10;0.20;99.90
12386;DHT22;6257;57.634;18.310;2023-04-03T04:21:38;0.10;99.90
12386;DHT22;6257;57.634;18.310;2023-04-03T04:24:07;0.20;99.90
12386;DHT22;6257;57.634;18.310;2023-04-03T04:26:34;0.20;99.90
12386;DHT22;6257;57.634;18.310;2023-04-03T04:29:01;0.30;99.90
12386;DHT22;6257;57.634;18.310;2023-04-03T04:31:28;0.30;99.90
12386;DHT22;6257;57.634;18.310;2023-04-03T04:33:55;0.40;99.90
12386;DHT22;6257;57.634;18.310;2023-04-03T04:36:22;0.40;99.90
12386;DHT22;6257;57.634;18.310;2023-04-03T04:38:49;0.50;99.90
12386;DHT22;6257;57.634;18.310;2023-04-03T04:41:19;0.70;99.90
12386;DHT22;6257;57.634;18.310;2023-04-03T04:43:48;0.60;99.90
12386;DHT22;6257;57.634;18.310;2023-04-03T04:46:15;0.70;99.90
12386;DHT22;6257;57.634;18.310;2023-04-03T04:48:42;0.70;99.90
12386;DHT22;6257;57.634;18.310;2023-04-03T04:51:09;0.70;99.90
12386;DHT22;6257;57.634;18.310;2023-04-03T04:53:36;0.80;99.90
12386;DHT22;6257;57.634;18.310;2023-04-03T04:56:04;0.90;99.90
12386;DHT22;6257;57.634;18.310;2023-04-03T04:58:33;1.00;99.90
12386;DHT22;6257;57.634;18.310;2023-04-03T05:01:00;1.10;99.90
12386;DHT22;6257;57.634;18.310;2023-04-03T05:03:27;1.30;99.90
12386;DHT22;6257;57.634;18.310;2023-04-03T05:05:55;1.40;99.90
12386;DHT22;6257;57.634;18.310;2023-04-03T05:08:23;1.80;99.90
12386;DHT22;6257;57.634;18.310;2023-04-03T05:10:50;2.40;99.90
12386;DHT22;6257;57.634;18.310;2023-04-03T05:13:17;2.80;99.90
12386;DHT22;6257;57.634;18.310;2023-04-03T05:15:46;3.10;99.90
12386;DHT22;6257;57.634;18.310;2023-04-03T05:18:13;3.20;99.90
12386;DHT22;6257;57.634;18.310;2023-04-03T05:20:40;3.40;99.90
12386;DHT22;6257;57.634;18.310;2023-04-03T05:23:09;3.30;99.90
12386;DHT22;6257;57.634;18.310;2023-04-03T05:25:37;3.30;99.90
12386;DHT22;6257;57.634;18.310;2023-04-03T05:28:05;3.20;99.90
12386;DHT22;6257;57.634;18.310;2023-04-03T05:30:32;3.10;99.90
12386;DHT22;6257;57.634;18.310;2023-04-03T05:33:01;3.00;99.90
12386;DHT22;6257;57.634;18.310;2023-04-03T05:35:28;3.00;99.90
12386;DHT22;6257;57.634;18.310;2023-04-03T05:37:55;2.90;99.90
12386;DHT22;6257;57.634;18.310;2023-04-03T05:40:22;2.70;99.90
12386;DHT22;6257;57.634;18.310;2023-04-03T05:42:49;2.60;99.90
12386;DHT22;6257;57.634;18.310;2023-04-03T05:45:16;2.50;99.90
12386;DHT22;6257;57.634;18.310;2023-04-03T05:47:43;2.60;99.90
12386;DHT22;6257;57.634;18.310;2023-04-03T05:50:12;2.70;99.90
12386;DHT22;6257;57.634;18.310;2023-04-03T05:52:42;2.80;99.90
12386;DHT22;6257;57.634;18.310;2023-04-03T05:55:10;2.70;99.90
12386;DHT22;6257;57.634;18.310;2023-04-03T05:57:37;2.70;99.90
12386;DHT22;6257;57.634;18.310;2023-04-03T06:00:05;2.60;99.90
12386;DHT22;6257;57.634;18.310;2023-04-03T06:02:32;2.50;99.90
12386;DHT22;6257;57.634;18.310;2023-04-03T06:04:59;2.50;99.90
12386;DHT22;6257;57.634;18.310;2023-04-03T06:07:28;2.40;99.90
12386;DHT22;6257;57.634;18.310;2023-04-03T06:09:56;2.30;99.90
12386;DHT22;6257;57.634;18.310;2023-04-03T06:12:24;2.40;99.90
12386;DHT22;6257;57.634;18.310;2023-04-03T06:14:51;2.40;99.90
12386;DHT22;6257;57.634;18.310;2023-04-03T06:17:18;2.30;99.90
12386;DHT22;6257;57.634;18.310;2023-04-03T06:19:45;2.30;99.90
12386;DHT22;6257;57.634;18.310;2023-04-03T06:22:13;2.40;99.90
12386;DHT22;6257;57.634;18.310;2023-04-03T06:24:41;2.50;99.90
12386;DHT22;6257;57.634;18.310;2023-04-03T06:27:10;2.60;99.90
12386;DHT22;6257;57.634;18.310;2023-04-03T06:29:37;2.70;99.90
12386;DHT22;6257;57.634;18.310;2023-04-03T06:32:05;2.90;99.90
12386;DHT22;6257;57.634;18.310;2023-04-03T06:34:32;3.00;99.90
12386;DHT22;6257;57.634;18.310;2023-04-03T06:36:59;3.00;99.90
12386;DHT22;6257;57.634;18.310;2023-04-03T06:39:26;2.90;99.90
12386;DHT22;6257;57.634;18.310;2023-04-03T06:41:55;2.90;99.90
12386;DHT22;6257;57.634;18.310;2023-04-03T06:44:22;2.90;99.90
12386;DHT22;6257;57.634;18.310;2023-04-03T06:46:49;3.00;99.90
12386;DHT22;6257;57.634;18.310;2023-04-03T06:49:17;3.00;99.90
12386;DHT22;6257;57.634;18.310;2023-04-03T06:51:44;2.70;99.90
12386;DHT22;6257;57.634;18.310;2023-04-03T06:54:11;2.50;99.90
12386;DHT22;6257;57.634;18.310;2023-04-03T06:56:38;2.40;99.90
12386;DHT22;6257;57.634;18.310;2023-04-03T06:59:07;2.40;99.90
12386;DHT22;6257;57.634;18.310;2023-04-03T07:01:34;2.30;99.90
12386;DHT22;6257;57.634;18.310;2023-04-03T07:04:01;2.30;99.90
12386;DHT22;6257;57.634;18.310;2023-04-03T07:06:28;2.30;99.90
12386;DHT22;6257;57.634;18.310;2023-04-03T07:08:56;2.30;99.90
12386;DHT22;6257;57.634;18.310;2023-04-03T07:11:23;2.30;99.90
12386;DHT22;6257;57.634;18.310;2023-04-03T07:13:52;2.30;99.90
12386;DHT22;6257;57.634;18.310;2023-04-03T07:16:20;2.40;99.90
12386;DHT22;6257;57.634;18.310;2023-04-03T07:18:48;2.50;99.90
12386;DHT22;6257;57.634;18.310;2023-04-03T07:21:15;2.50;99.90
12386;DHT22;6257;57.634;18.310;2023-04-03T07:23:42;2.50;99.90
12386;DHT22;6257;57.634;18.310;2023-04-03T07:26:09;2.40;99.90
12386;DHT22;6257;57.634;18.310;2023-04-03T07:28:36;2.30;99.90
12386;DHT22;6257;57.634;18.310;2023-04-03T07:31:07;2.30;99.90
12386;DHT22;6257;57.634;18.310;2023-04-03T07:33:38;2.30;99.90
12386;DHT22;6257;57.634;18.310;2023-04-03T07:36:06;2.40;99.90
12386;DHT22;6257;57.634;18.310;2023-04-03T07:38:33;2.40;99.90
12386;DHT22;6257;57.634;18.310;2023-04-03T07:41:01;2.30;99.90
12386;DHT22;6257;57.634;18.310;2023-04-03T07:43:28;2.20;99.90
12386;DHT22;6257;57.634;18.310;2023-04-03T07:45:55;2.20;99.90
12386;DHT22;6257;57.634;18.310;2023-04-03T07:48:24;2.10;99.90
12386;DHT22;6257;57.634;18.310;2023-04-03T07:50:53;2.10;99.90
12386;DHT22;6257;57.634;18.310;2023-04-03T07:53:20;2.10;99.90
12386;DHT22;6257;57.634;18.310;2023-04-03T07:55:48;2.20;99.90
12386;DHT22;6257;57.634;18.310;2023-04-03T07:58:18;2.20;99.90
12386;DHT22;6257;57.634;18.310;2023-04-03T08:00:45;2.40;99.90
12386;DHT22;6257;57.634;18.310;2023-04-03T08:03:13;2.50;99.90
12386;DHT22;6257;57.634;18.310;2023-04-03T08:05:43;2.60;99.90
12386;DHT22;6257;57.634;18.310;2023-04-03T08:08:15;2.60;99.90
12386;DHT22;6257;57.634;18.310;2023-04-03T08:10:42;2.60;99.90
12386;DHT22;6257;57.634;18.310;2023-04-03T08:13:09;2.90;99.90
12386;DHT22;6257;57.634;18.310;2023-04-03T08:15:36;3.00;99.90
12386;DHT22;6257;57.634;18.310;2023-04-03T08:18:04;2.90;99.90
12386;DHT22;6257;57.634;18.310;2023-04-03T08:20:31;3.00;99.90
12386;DHT22;6257;57.634;18.310;2023-04-03T08:22:58;2.90;99.90
12386;DHT22;6257;57.634;18.310;2023-04-03T08:25:27;2.70;99.90
12386;DHT22;6257;57.634;18.310;2023-04-03T08:27:55;2.50;99.90
12386;DHT22;6257;57.634;18.310;2023-04-03T08:30:22;2.30;99.90
12386;DHT22;6257;57.634;18.310;2023-04-03T08:32:49;2.30;99.90
12386;DHT22;6257;57.634;18.310;2023-04-03T08:35:16;2.30;99.90
12386;DHT22;6257;57.634;18.310;2023-04-03T08:37:43;2.30;99.90
12386;DHT22;6257;57.634;18.310;2023-04-03T08:40:14;2.40;99.90
12386;DHT22;6257;57.634;18.310;2023-04-03T08:42:51;2.50;99.90
12386;DHT22;6257;57.634;18.310;2023-04-03T08:45:27;2.40;99.90
12386;DHT22;6257;57.634;18.310;2023-04-03T08:48:03;2.50;99.90
12386;DHT22;6257;57.634;18.310;2023-04-03T08:50:37;2.40;99.90
12386;DHT22;6257;57.634;18.310;2023-04-03T08:53:06;2.50;99.90
12386;DHT22;6257;57.634;18.310;2023-04-03T08:55:41;2.60;99.90
12386;DHT22;6257;57.634;18.310;2023-04-03T08:58:13;2.50;99.90
12386;DHT22;6257;57.634;18.310;2023-04-03T09:00:46;2.50;99.90
12386;DHT22;6257;57.634;18.310;2023-04-03T09:03:15;2.50;99.90
12386;DHT22;6257;57.634;18.310;2023-04-03T09:05:48;2.60;99.90
12386;DHT22;6257;57.634;18.310;2023-04-03T09:08:22;2.80;99.90
12386;DHT22;6257;57.634;18.310;2023-04-03T09:10:59;3.00;99.90
12386;DHT22;6257;57.634;18.310;2023-04-03T09:13:32;2.90;99.90
12386;DHT22;6257;57.634;18.310;2023-04-03T09:16:04;2.90;99.90
12386;DHT22;6257;57.634;18.310;2023-04-03T09:18:45;2.90;99.90
12386;DHT22;6257;57.634;18.310;2023-04-03T09:21:21;2.80;99.90
12386;DHT22;6257;57.634;18.310;2023-04-03T09:23:51;2.80;99.90
12386;DHT22;6257;57.634;18.310;2023-04-03T09:26:21;2.80;99.90
12386;DHT22;6257;57.634;18.310;2023-04-03T09:28:52;2.70;99.90
12386;DHT22;6257;57.634;18.310;2023-04-03T09:31:23;2.60;99.90
12386;DHT22;6257;57.634;18.310;2023-04-03T09:33:53;2.70;99.90
12386;DHT22;6257;57.634;18.310;2023-04-03T09:36:38;2.60;99.90
12386;DHT22;6257;57.634;18.310;2023-04-03T09:39:07;2.70;99.90
12386;DHT22;6257;57.634;18.310;2023-04-03T09:41:36;3.00;99.90
12386;DHT22;6257;57.634;18.310;2023-04-03T09:44:21;3.20;99.90
12386;DHT22;6257;57.634;18.310;2023-04-03T09:46:48;3.20;99.90
12386;DHT22;6257;57.634;18.310;2023-04-03T09:49:16;3.10;99.90
12386;DHT22;6257;57.634;18.310;2023-04-03T09:51:43;3.10;99.90
12386;DHT22;6257;57.634;18.310;2023-04-03T09:54:32;3.20;99.90
12386;DHT22;6257;57.634;18.310;2023-04-03T09:57:06;3.30;99.90
12386;DHT22;6257;57.634;18.310;2023-04-03T09:59:43;3.30;99.90
12386;DHT22;6257;57.634;18.310;2023-04-03T10:02:33;3.30;99.90
12386;DHT22;6257;57.634;18.310;2023-04-03T10:05:01;3.20;99.90
12386;DHT22;6257;57.634;18.310;2023-04-03T10:07:31;3.20;99.90
12386;DHT22;6257;57.634;18.310;2023-04-03T10:10:01;3.10;99.90
12386;DHT22;6257;57.634;18.310;2023-04-03T10:12:29;3.20;99.90
12386;DHT22;6257;57.634;18.310;2023-04-03T10:14:59;3.30;99.90
12386;DHT22;6257;57.634;18.310;2023-04-03T10:17:36;3.30;99.90
12386;DHT22;6257;57.634;18.310;2023-04-03T10:20:15;3.30;99.90
12386;DHT22;6257;57.634;18.310;2023-04-03T10:22:49;3.10;99.90
12386;DHT22;6257;57.634;18.310;2023-04-03T10:25:28;3.10;99.90
12386;DHT22;6257;57.634;18.310;2023-04-03T10:28:00;3.20;99.90
12386;DHT22;6257;57.634;18.310;2023-04-03T10:30:40;3.20;99.90
12386;DHT22;6257;57.634;18.310;2023-04-03T10:33:33;3.10;99.90
12386;DHT22;6257;57.634;18.310;2023-04-03T10:36:15;3.10;99.90
12386;DHT22;6257;57.634;18.310;2023-04-03T10:38:51;3.20;99.90
12386;DHT22;6257;57.634;18.310;2023-04-03T10:41:27;3.10;99.90
12386;DHT22;6257;57.634;18.310;2023-04-03T10:44:03;2.90;99.90
12386;DHT22;6257;57.634;18.310;2023-04-03T10:46:38;2.90;99.90
12386;DHT22;6257;57.634;18.310;2023-04-03T10:49:20;2.90;99.90
12386;DHT22;6257;57.634;18.310;2023-04-03T10:51:58;2.90;99.90
12386;DHT22;6257;57.634;18.310;2023-04-03T10:54:32;2.90;99.90
12386;DHT22;6257;57.634;18.310;2023-04-03T10:57:03;3.00;99.90
12386;DHT22;6257;57.634;18.310;2023-04-03T10:59:32;3.00;99.90
12386;DHT22;6257;57.634;18.310;2023-04-03T11:02:06;3.10;99.90
12386;DHT22;6257;57.634;18.310;2023-04-03T11:04:36;3.10;99.90
12386;DHT22;6257;57.634;18.310;2023-04-03T11:07:09;3.10;99.90
12386;DHT22;6257;57.634;18.310;2023-04-03T11:09:40;3.10;99.90
12386;DHT22;6257;57.634;18.310;2023-04-03T11:12:12;3.00;99.90
12386;DHT22;6257;57.634;18.310;2023-04-03T11:14:41;3.00;99.90
12386;DHT22;6257;57.634;18.310;2023-04-03T11:17:19;3.00;99.90
12386;DHT22;6257;57.634;18.310;2023-04-03T11:19:52;3.10;99.90
12386;DHT22;6257;57.634;18.310;2023-04-03T11:22:27;3.00;99.90
12386;DHT22;6257;57.634;18.310;2023-04-03T11:25:02;3.00;99.90
12386;DHT22;6257;57.634;18.310;2023-04-03T11:27:37;2.90;99.90
12386;DHT22;6257;57.634;18.310;2023-04-03T11:30:09;3.00;99.90
12386;DHT22;6257;57.634;18.310;2023-04-03T11:35:45;3.00;99.90
12386;DHT22;6257;57.634;18.310;2023-04-03T11:38:19;3.00;99.90
12386;DHT22;6257;57.634;18.310;2023-04-03T11:40:49;2.90;99.90
12386;DHT22;6257;57.634;18.310;2023-04-03T11:43:23;2.90;99.90
12386;DHT22;6257;57.634;18.310;2023-04-03T11:45:54;2.90;99.90
12386;DHT22;6257;57.634;18.310;2023-04-03T11:48:50;3.00;99.90
12386;DHT22;6257;57.634;18.310;2023-04-03T11:51:43;3.10;99.90
12386;DHT22;6257;57.634;18.310;2023-04-03T11:54:44;3.00;99.90
12386;DHT22;6257;57.634;18.310;2023-04-03T11:57:44;3.00;99.90
12386;DHT22;6257;57.634;18.310;2023-04-03T12:00:46;3.00;99.90
12386;DHT22;6257;57.634;18.310;2023-04-03T12:09:59;3.00;99.90
12386;DHT22;6257;57.634;18.310;2023-04-03T12:12:37;2.90;99.90
12386;DHT22;6257;57.634;18.310;2023-04-03T12:21:18;2.70;99.90
12386;DHT22;6257;57.634;18.310;2023-04-03T12:23:59;2.70;99.90
12386;DHT22;6257;57.634;18.310;2023-04-03T12:26:32;2.70;99.90
12386;DHT22;6257;57.634;18.310;2023-04-03T12:29:13;2.60;99.90
12386;DHT22;6257;57.634;18.310;2023-04-03T12:31:47;2.50;99.90
12386;DHT22;6257;57.634;18.310;2023-04-03T12:34:33;2.50;99.90
12386;DHT22;6257;57.634;18.310;2023-04-03T12:37:12;2.60;99.90
12386;DHT22;6257;57.634;18.310;2023-04-03T12:40:03;2.80;99.90
12386;DHT22;6257;57.634;18.310;2023-04-03T12:42:56;2.90;99.90
12386;DHT22;6257;57.634;18.310;2023-04-03T12:45:27;2.80;99.90
12386;DHT22;6257;57.634;18.310;2023-04-03T12:47:55;2.90;99.90
12386;DHT22;6257;57.634;18.310;2023-04-03T12:50:24;2.90;99.90
12386;DHT22;6257;57.634;18.310;2023-04-03T12:52:57;2.90;99.90
12386;DHT22;6257;57.634;18.310;2023-04-03T12:55:27;2.70;99.90
12386;DHT22;6257;57.634;18.310;2023-04-03T12:57:56;2.70;99.90
12386;DHT22;6257;57.634;18.310;2023-04-03T13:00:31;2.80;99.90
12386;DHT22;6257;57.634;18.310;2023-04-03T13:03:01;2.80;99.90
12386;DHT22;6257;57.634;18.310;2023-04-03T13:05:30;2.90;99.90
12386;DHT22;6257;57.634;18.310;2023-04-03T13:08:00;2.90;99.90
12386;DHT22;6257;57.634;18.310;2023-04-03T13:10:27;2.90;99.90
12386;DHT22;6257;57.634;18.310;2023-04-03T13:12:57;2.80;99.90
12386;DHT22;6257;57.634;18.310;2023-04-03T13:15:27;2.60;99.90
12386;DHT22;6257;57.634;18.310;2023-04-03T13:17:55;2.50;99.90
12386;DHT22;6257;57.634;18.310;2023-04-03T13:20:25;2.60;99.90
12386;DHT22;6257;57.634;18.310;2023-04-03T13:22:58;2.50;99.90
12386;DHT22;6257;57.634;18.310;2023-04-03T13:25:29;2.50;99.90
12386;DHT22;6257;57.634;18.310;2023-04-03T13:27:59;2.70;99.90
12386;DHT22;6257;57.634;18.310;2023-04-03T13:30:30;2.80;99.90
12386;DHT22;6257;57.634;18.310;2023-04-03T13:33:00;2.70;99.90
12386;DHT22;6257;57.634;18.310;2023-04-03T13:35:35;2.70;99.90
12386;DHT22;6257;57.634;18.310;2023-04-03T13:38:05;2.70;99.90
12386;DHT22;6257;57.634;18.310;2023-04-03T13:40:33;2.60;99.90
12386;DHT22;6257;57.634;18.310;2023-04-03T13:43:05;2.60;99.90
12386;DHT22;6257;57.634;18.310;2023-04-03T13:45:33;2.60;99.90
12386;DHT22;6257;57.634;18.310;2023-04-03T13:48:16;2.60;99.90
12386;DHT22;6257;57.634;18.310;2023-04-03T13:50:54;2.60;99.90
12386;DHT22;6257;57.634;18.310;2023-04-03T13:53:22;2.50;99.90
12386;DHT22;6257;57.634;18.310;2023-04-03T13:55:59;2.40;99.90
12386;DHT22;6257;57.634;18.310;2023-04-03T13:58:28;2.30;99.90
12386;DHT22;6257;57.634;18.310;2023-04-03T14:01:00;2.30;99.90
12386;DHT22;6257;57.634;18.310;2023-04-03T14:03:31;2.30;99.90
12386;DHT22;6257;57.634;18.310;2023-04-03T14:05:59;2.40;99.90
12386;DHT22;6257;57.634;18.310;2023-04-03T14:08:27;2.30;99.90
12386;DHT22;6257;57.634;18.310;2023-04-03T14:10:54;2.40;99.90
12386;DHT22;6257;57.634;18.310;2023-04-03T14:13:22;2.40;99.90
12386;DHT22;6257;57.634;18.310;2023-04-03T14:15:50;2.40;99.90
12386;DHT22;6257;57.634;18.310;2023-04-03T14:18:19;2.40;99.90
12386;DHT22;6257;57.634;18.310;2023-04-03T14:20:47;2.40;99.90
12386;DHT22;6257;57.634;18.310;2023-04-03T14:23:15;2.40;99.90
12386;DHT22;6257;57.634;18.310;2023-04-03T14:25:42;2.40;99.90
12386;DHT22;6257;57.634;18.310;2023-04-03T14:28:16;2.40;99.90
12386;DHT22;6257;57.634;18.310;2023-04-03T14:30:45;2.50;99.90
12386;DHT22;6257;57.634;18.310;2023-04-03T14:33:16;2.40;99.90
12386;DHT22;6257;57.634;18.310;2023-04-03T14:35:44;2.30;99.90
12386;DHT22;6257;57.634;18.310;2023-04-03T14:38:20;2.30;99.90
12386;DHT22;6257;57.634;18.310;2023-04-03T14:40:48;2.30;99.90
12386;DHT22;6257;57.634;18.310;2023-04-03T14:43:16;2.30;99.90
12386;DHT22;6257;57.634;18.310;2023-04-03T14:45:43;2.30;99.90
12386;DHT22;6257;57.634;18.310;2023-04-03T14:48:17;2.30;99.90
12386;DHT22;6257;57.634;18.310;2023-04-03T14:50:45;2.40;99.90
12386;DHT22;6257;57.634;18.310;2023-04-03T14:53:12;2.40;99.90
12386;DHT22;6257;57.634;18.310;2023-04-03T14:55:40;2.30;99.90
12386;DHT22;6257;57.634;18.310;2023-04-03T14:58:11;2.40;99.90
12386;DHT22;6257;57.634;18.310;2023-04-03T15:00:39;2.40;99.90
12386;DHT22;6257;57.634;18.310;2023-04-03T15:03:06;2.30;99.90
12386;DHT22;6257;57.634;18.310;2023-04-03T15:05:35;2.20;99.90
12386;DHT22;6257;57.634;18.310;2023-04-03T15:08:02;2.20;99.90
12386;DHT22;6257;57.634;18.310;2023-04-03T15:10:30;2.20;99.90
12386;DHT22;6257;57.634;18.310;2023-04-03T15:12:58;2.20;99.90
12386;DHT22;6257;57.634;18.310;2023-04-03T15:15:28;2.30;99.90
12386;DHT22;6257;57.634;18.310;2023-04-03T15:17:57;2.20;99.90
12386;DHT22;6257;57.634;18.310;2023-04-03T15:20:25;2.20;99.90
12386;DHT22;6257;57.634;18.310;2023-04-03T15:22:54;2.10;99.90
12386;DHT22;6257;57.634;18.310;2023-04-03T15:25:23;2.10;99.90
12386;DHT22;6257;57.634;18.310;2023-04-03T15:27:50;2.10;99.90
12386;DHT22;6257;57.634;18.310;2023-04-03T15:30:19;2.10;99.90
12386;DHT22;6257;57.634;18.310;2023-04-03T15:32:47;2.00;99.90
12386;DHT22;6257;57.634;18.310;2023-04-03T15:35:14;2.00;99.90
12386;DHT22;6257;57.634;18.310;2023-04-03T15:37:41;2.00;99.90
12386;DHT22;6257;57.634;18.310;2023-04-03T15:40:11;2.00;99.90
12386;DHT22;6257;57.634;18.310;2023-04-03T15:42:38;2.00;99.90
12386;DHT22;6257;57.634;18.310;2023-04-03T15:45:07;2.00;99.90
12386;DHT22;6257;57.634;18.310;2023-04-03T15:47:34;2.00;99.90
12386;DHT22;6257;57.634;18.310;2023-04-03T15:50:01;2.00;99.90
12386;DHT22;6257;57.634;18.310;2023-04-03T15:52:31;2.00;99.90
12386;DHT22;6257;57.634;18.310;2023-04-03T15:54:58;1.90;99.90
12386;DHT22;6257;57.634;18.310;2023-04-03T15:57:27;1.80;99.90
12386;DHT22;6257;57.634;18.310;2023-04-03T15:59:54;1.80;99.90
12386;DHT22;6257;57.634;18.310;2023-04-03T16:02:22;1.80;99.90
12386;DHT22;6257;57.634;18.310;2023-04-03T16:04:53;1.80;99.90
12386;DHT22;6257;57.634;18.310;2023-04-03T16:07:20;1.80;99.90
12386;DHT22;6257;57.634;18.310;2023-04-03T16:09:47;1.80;99.90
12386;DHT22;6257;57.634;18.310;2023-04-03T16:12:14;1.80;99.90
12386;DHT22;6257;57.634;18.310;2023-04-03T16:14:43;1.80;99.90
12386;DHT22;6257;57.634;18.310;2023-04-03T16:17:10;1.80;99.90
12386;DHT22;6257;57.634;18.310;2023-04-03T16:19:37;1.70;99.90
12386;DHT22;6257;57.634;18.310;2023-04-03T16:22:04;1.80;99.90